createdAt,value
2022-09-02T00:00:53.476Z,1.30
2022-09-02T00:03:20.848Z,1.40
2022-09-02T00:05:47.922Z,1.15
2022-09-02T00:08:14.176Z,1.30
2022-09-02T00:10:42.842Z,1.17
2022-09-02T00:13:10.663Z,1.20
2022-09-02T00:15:37.342Z,1.13
2022-09-02T00:18:04.715Z,1.25
2022-09-02T00:20:31.336Z,1.20
2022-09-02T00:22:57.591Z,1.17
2022-09-02T00:25:23.888Z,1.38
2022-09-02T00:27:50.272Z,1.20
2022-09-02T00:30:16.774Z,1.42
2022-09-02T00:32:43.055Z,1.13
2022-09-02T00:35:09.954Z,1.35
2022-09-02T00:37:36.588Z,1.30
2022-09-02T00:40:03.731Z,1.30
2022-09-02T00:42:30.063Z,1.50
2022-09-02T00:44:56.334Z,1.40
2022-09-02T00:47:22.911Z,1.60
2022-09-02T00:49:51.295Z,1.73
2022-09-02T00:52:20.806Z,1.40
2022-09-02T00:54:49.512Z,1.30
2022-09-02T00:57:19.573Z,1.55
2022-09-02T00:59:53.775Z,1.58
2022-09-02T01:02:24.043Z,1.40
2022-09-02T01:04:51.180Z,1.80
2022-09-02T01:07:17.504Z,1.60
2022-09-02T01:09:43.785Z,1.58
2022-09-02T01:12:12.637Z,1.40
2022-09-02T01:14:38.926Z,1.55
2022-09-02T01:17:06.926Z,1.58
2022-09-02T01:19:35.120Z,1.40
2022-09-02T01:22:02.086Z,1.83
2022-09-02T01:24:30.034Z,1.40
2022-09-02T01:26:57.456Z,1.55
2022-09-02T01:29:24.756Z,1.40
2022-09-02T01:31:51.444Z,1.30
2022-09-02T01:34:17.823Z,1.40
2022-09-02T01:36:44.357Z,1.40
2022-09-02T01:39:12.242Z,1.30
2022-09-02T01:41:38.531Z,1.50
2022-09-02T01:44:05.738Z,1.30
2022-09-02T01:46:32.573Z,1.67
2022-09-02T01:48:58.873Z,1.50
2022-09-02T01:51:25.102Z,1.40
2022-09-02T01:53:51.362Z,1.25
2022-09-02T01:56:17.725Z,1.40
2022-09-02T01:58:44.060Z,1.42
2022-09-02T02:01:11.480Z,1.42
2022-09-02T02:03:38.592Z,1.60
2022-09-02T02:06:08.965Z,1.40
2022-09-02T02:08:35.235Z,1.50
2022-09-02T02:11:01.699Z,1.50
2022-09-02T02:13:28.015Z,1.70
2022-09-02T02:15:54.501Z,1.50
2022-09-02T02:18:20.874Z,1.38
2022-09-02T02:20:47.200Z,1.83
2022-09-02T02:23:13.656Z,1.60
2022-09-02T02:25:39.978Z,1.92
2022-09-02T02:28:06.341Z,1.60
2022-09-02T02:30:32.721Z,1.77
2022-09-02T02:32:59.141Z,1.38
2022-09-02T02:35:25.649Z,1.50
2022-09-02T02:37:52.379Z,1.60
2022-09-02T02:40:20.274Z,1.80
2022-09-02T02:42:47.649Z,1.48
2022-09-02T02:45:15.128Z,1.30
2022-09-02T02:47:43.005Z,1.35
2022-09-02T02:50:10.981Z,1.80
2022-09-02T02:52:38.522Z,1.33
2022-09-02T02:55:06.411Z,1.58
2022-09-02T02:57:33.983Z,1.50
2022-09-02T03:00:11.867Z,1.60
2022-09-02T03:02:38.610Z,1.30
2022-09-02T03:05:06.093Z,1.50
2022-09-02T03:07:32.371Z,1.50
2022-09-02T03:09:58.796Z,1.45
2022-09-02T03:12:25.378Z,1.58
2022-09-02T03:14:52.616Z,1.58
2022-09-02T03:17:18.947Z,1.67
2022-09-02T03:19:45.560Z,1.70
2022-09-02T03:22:12.175Z,1.80
2022-09-02T03:24:38.539Z,1.55
2022-09-02T03:27:05.112Z,1.90
2022-09-02T03:29:31.407Z,1.80
2022-09-02T03:31:57.668Z,1.77
2022-09-02T03:34:24.220Z,1.50
2022-09-02T03:36:50.501Z,1.60
2022-09-02T03:39:16.909Z,1.70
2022-09-02T03:41:43.269Z,1.75
2022-09-02T03:44:10.307Z,1.90
2022-09-02T03:46:36.986Z,1.65
2022-09-02T03:49:03.992Z,2.13
2022-09-02T03:51:31.459Z,1.63
2022-09-02T03:53:57.741Z,1.80
2022-09-02T03:56:25.132Z,1.75
2022-09-02T03:58:51.883Z,1.80
2022-09-02T04:01:20.068Z,1.65
2022-09-02T04:03:47.007Z,1.80
2022-09-02T04:06:14.283Z,1.55
2022-09-02T04:08:41.554Z,1.85
2022-09-02T04:11:09.256Z,1.98
2022-09-02T04:13:35.602Z,1.70
2022-09-02T04:16:09.233Z,1.75
2022-09-02T04:18:37.251Z,1.48
2022-09-02T04:21:03.968Z,1.77
2022-09-02T04:23:30.752Z,1.80
2022-09-02T04:25:57.184Z,1.80
2022-09-02T04:28:23.920Z,1.75
2022-09-02T04:30:50.828Z,2.10
2022-09-02T04:33:17.946Z,1.83
2022-09-02T04:35:45.213Z,1.90
2022-09-02T04:38:11.907Z,2.00
2022-09-02T19:22:07.853Z,2.50
2022-09-02T19:24:36.101Z,2.63
2022-09-02T19:27:04.627Z,2.90
2022-09-02T19:29:32.173Z,2.80
2022-09-02T19:31:58.594Z,2.70
2022-09-02T19:34:30.642Z,2.67
2022-09-02T19:36:56.967Z,2.67
2022-09-02T19:39:23.342Z,2.50
2022-09-02T19:41:50.088Z,2.63
2022-09-02T19:44:17.444Z,2.40
2022-09-02T19:47:24.787Z,2.47
2022-09-02T19:49:30.842Z,2.70
2022-09-02T19:51:57.115Z,2.47
2022-09-02T19:54:23.443Z,2.60
2022-09-02T19:56:49.758Z,2.65
2022-09-02T19:59:16.315Z,2.63
2022-09-02T20:01:42.658Z,2.58
2022-09-02T20:04:09.005Z,2.70
2022-09-02T20:06:35.722Z,2.60
2022-09-02T20:09:02.148Z,3.17
2022-09-02T20:11:28.610Z,2.88
2022-09-02T20:13:56.307Z,3.13
2022-09-02T20:16:24.660Z,2.75
2022-09-02T20:18:52.920Z,2.78
2022-09-02T20:21:23.531Z,2.65
2022-09-02T20:23:50.191Z,2.70
2022-09-02T20:26:27.206Z,2.80
2022-09-02T20:28:59.339Z,3.08
2022-09-02T20:31:28.661Z,2.80
2022-09-02T20:34:09.508Z,2.95
2022-09-02T20:36:45.980Z,2.90
2022-09-02T20:39:19.632Z,2.92
2022-09-02T20:41:55.157Z,2.83
2022-09-02T20:44:34.460Z,2.90
2022-09-02T20:47:20.025Z,2.72
2022-09-02T20:50:00.024Z,2.75
2022-09-02T20:52:31.938Z,3.00
2022-09-02T20:55:02.670Z,2.90
2022-09-02T20:57:28.884Z,3.25
2022-09-02T20:59:58.251Z,3.83
2022-09-02T21:02:28.080Z,2.95
2022-09-02T21:05:00.541Z,2.60
2022-09-02T21:07:32.579Z,2.42
2022-09-02T21:10:06.383Z,2.80
2022-09-02T21:12:37.146Z,2.60
2022-09-02T21:15:07.008Z,2.90
2022-09-02T21:17:33.263Z,2.55
2022-09-02T21:20:38.376Z,2.42
2022-09-02T21:23:09.349Z,2.60
2022-09-02T21:25:48.335Z,2.53
2022-09-02T21:28:19.527Z,2.42
2022-09-02T21:30:48.817Z,2.67
2022-09-02T21:33:16.514Z,2.50
2022-09-02T21:35:42.780Z,2.10
2022-09-02T21:38:10.458Z,3.00
2022-09-02T21:40:50.702Z,2.45
2022-09-02T21:43:30.849Z,2.83
2022-09-02T21:45:57.087Z,2.90
2022-09-02T21:48:36.282Z,2.60
2022-09-02T21:51:15.612Z,2.60
2022-09-02T21:53:54.369Z,2.75
2022-09-02T21:56:20.758Z,2.20
2022-09-02T21:59:10.480Z,2.20
2022-09-02T22:01:46.037Z,2.20
2022-09-02T22:04:12.358Z,2.03
2022-09-02T22:06:42.292Z,2.40
2022-09-02T22:09:08.687Z,2.35
2022-09-02T22:11:39.047Z,2.20
2022-09-02T22:14:14.336Z,2.00
2022-09-02T22:16:41.078Z,2.40
2022-09-02T22:19:10.871Z,2.15
2022-09-02T22:22:00.769Z,2.10
2022-09-02T22:24:31.068Z,2.30
2022-09-02T22:27:02.279Z,1.90
2022-09-02T22:29:36.590Z,2.43
2022-09-02T22:32:07.739Z,2.33
2022-09-02T22:34:38.959Z,2.00
2022-09-02T22:37:07.842Z,2.10
2022-09-02T22:39:47.472Z,2.17
2022-09-02T22:42:16.008Z,2.20
2022-09-02T22:45:03.815Z,2.20
2022-09-02T22:47:50.255Z,2.10
2022-09-02T22:50:38.533Z,2.10
2022-09-02T22:53:04.824Z,2.20
2022-09-02T22:55:52.984Z,2.15
2022-09-02T22:58:22.129Z,2.28
2022-09-02T23:00:58.742Z,1.95
2022-09-02T23:03:29.911Z,2.03
2022-09-02T23:06:07.946Z,2.10
2022-09-02T23:08:39.680Z,2.00
2022-09-02T23:11:11.468Z,2.28
2022-09-02T23:13:37.727Z,2.35
2022-09-02T23:16:23.462Z,2.03
2022-09-02T23:19:00.832Z,2.05
2022-09-02T23:21:37.087Z,2.10
2022-09-02T23:24:03.330Z,1.92
2022-09-02T23:26:49.831Z,2.50
2022-09-02T23:29:26.171Z,2.40
2022-09-02T23:32:10.716Z,2.25
2022-09-02T23:34:43.616Z,2.45
2022-09-02T23:37:30.564Z,2.20
2022-09-02T23:40:00.832Z,1.98
2022-09-02T23:42:27.457Z,2.00
2022-09-02T23:44:59.929Z,1.83
2022-09-02T23:47:37.478Z,2.30
2022-09-02T23:50:12.597Z,1.90
2022-09-02T23:52:42.890Z,2.08
2022-09-02T23:55:20.823Z,2.10
2022-09-02T23:57:48.078Z,2.33
